Time;durP1;ratioP1;P1;durP2;ratioP2;P2;SDS_P1;SDS_P2;PMS_P1;PMS_P2;Temp;Humidity;BMP_temperature;BMP_pressure;BME280_temperature;BME280_humidity;BME280_pressure;Samples;Min_cycle;Max_cycle;Signal;HPM_P1;HPM_P2
2024/04/02 00:01:10;;;;;;;9.60;7.20;;;9.60;99.90;;;;;;4900063;29;20875;-69
2024/04/02 00:03:37;;;;;;;8.80;7.70;;;9.60;99.90;;;;;;4884476;29;20458;-69
2024/04/02 00:06:05;;;;;;;8.20;7.27;;;9.60;99.90;;;;;;4900614;29;20525;-69
2024/04/02 00:08:31;;;;;;;6.90;6.20;;;9.60;99.90;;;;;;4900121;29;20484;-69
2024/04/02 00:11:05;;;;;;;7.70;6.77;;;9.60;99.90;;;;;;4900021;29;20943;-69
2024/04/02 00:13:32;;;;;;;7.43;6.63;;;9.60;99.90;;;;;;4899975;29;20505;-69
2024/04/02 00:15:59;;;;;;;8.23;7.20;;;9.60;99.90;;;;;;4900349;29;20445;-69
2024/04/02 00:18:25;;;;;;;8.40;7.50;;;9.60;99.90;;;;;;4900245;29;20449;-69
2024/04/02 00:20:53;;;;;;;9.13;7.40;;;9.60;99.90;;;;;;4900297;29;21018;-69
2024/04/02 00:23:19;;;;;;;7.90;7.10;;;9.50;99.90;;;;;;4899879;29;21062;-69
2024/04/02 00:25:47;;;;;;;8.13;7.30;;;9.50;99.90;;;;;;4883987;29;20948;-69
2024/04/02 00:28:14;;;;;;;9.23;7.37;;;9.50;99.90;;;;;;4899569;29;20477;-69
2024/04/02 00:30:42;;;;;;;8.30;7.30;;;9.50;99.90;;;;;;4884045;29;20556;-69
2024/04/02 00:33:08;;;;;;;8.63;7.90;;;9.50;99.90;;;;;;4915060;29;20477;-69
2024/04/02 00:35:35;;;;;;;7.90;7.20;;;9.50;99.90;;;;;;4899485;29;20540;-69
2024/04/02 00:38:02;;;;;;;8.40;7.33;;;9.60;99.90;;;;;;4914990;29;20472;-69
2024/04/02 00:40:29;;;;;;;8.83;7.93;;;9.60;99.90;;;;;;4899410;29;20477;-69
2024/04/02 00:43:05;;;;;;;8.67;7.43;;;9.60;99.90;;;;;;4899543;29;20473;-69
2024/04/02 00:45:34;;;;;;;7.87;7.17;;;9.60;99.90;;;;;;4883629;29;20528;-69
2024/04/02 00:48:00;;;;;;;8.80;7.20;;;9.60;99.90;;;;;;4882641;29;20492;-69
2024/04/02 00:50:28;;;;;;;8.43;7.33;;;9.60;99.90;;;;;;4899730;29;20445;-69
2024/04/02 00:52:55;;;;;;;7.77;7.17;;;9.60;99.90;;;;;;4899098;29;20476;-69
2024/04/02 00:55:22;;;;;;;7.50;6.83;;;9.60;99.90;;;;;;4899157;29;20449;-69
2024/04/02 00:57:49;;;;;;;8.73;7.80;;;9.60;99.90;;;;;;4914762;29;20538;-69
2024/04/02 01:00:17;;;;;;;8.50;7.70;;;9.60;99.90;;;;;;4883346;29;20449;-69
2024/04/02 01:02:45;;;;;;;7.67;6.97;;;9.60;99.90;;;;;;4898921;29;20477;-69
2024/04/02 01:05:12;;;;;;;7.20;6.50;;;9.60;99.90;;;;;;4899129;29;20445;-69
2024/04/02 01:07:40;;;;;;;7.33;6.73;;;9.50;99.90;;;;;;4898948;29;20476;-69
2024/04/02 01:10:08;;;;;;;8.20;7.40;;;9.50;99.90;;;;;;4899015;29;20522;-69
2024/04/02 01:12:34;;;;;;;7.53;6.93;;;9.50;99.90;;;;;;4899101;29;20469;-69
2024/04/02 01:15:02;;;;;;;7.90;7.10;;;9.50;99.90;;;;;;4915153;29;20449;-69
2024/04/02 01:17:28;;;;;;;10.03;8.67;;;9.50;99.90;;;;;;4898764;29;20449;-69
2024/04/02 01:19:57;;;;;;;9.27;8.30;;;9.50;99.90;;;;;;4898845;29;20456;-69
2024/04/02 01:22:23;;;;;;;8.73;8.03;;;9.40;99.90;;;;;;4882987;29;20481;-69
2024/04/02 01:24:58;;;;;;;9.53;8.70;;;9.40;99.90;;;;;;4898842;29;20450;-69
2024/04/02 01:27:26;;;;;;;10.23;9.33;;;9.40;99.90;;;;;;4898525;29;20976;-69
2024/04/02 01:29:54;;;;;;;10.07;9.33;;;9.40;99.90;;;;;;4898733;29;20804;-69
2024/04/02 01:32:20;;;;;;;10.63;9.53;;;9.40;99.90;;;;;;4898598;29;20488;-69
2024/04/02 01:34:47;;;;;;;10.10;9.10;;;9.30;99.90;;;;;;4914334;29;20442;-69
2024/04/02 01:37:14;;;;;;;10.17;9.27;;;9.30;99.90;;;;;;4899210;29;20449;-69
2024/04/02 01:39:41;;;;;;;11.20;10.10;;;9.30;99.90;;;;;;4902176;29;20457;-69
2024/04/02 01:42:07;;;;;;;10.83;9.73;;;9.30;99.90;;;;;;4900194;29;20484;-69
2024/04/02 01:44:36;;;;;;;10.43;9.40;;;9.30;99.90;;;;;;4899221;29;20469;-69
2024/04/02 01:47:02;;;;;;;11.33;10.23;;;9.30;99.90;;;;;;4883019;29;20460;-69
2024/04/02 01:49:29;;;;;;;10.57;9.70;;;9.30;99.90;;;;;;4898818;29;20453;-69
2024/04/02 01:51:56;;;;;;;10.73;9.73;;;9.30;99.90;;;;;;4898576;29;20469;-69
2024/04/02 01:54:23;;;;;;;11.40;10.50;;;9.30;99.90;;;;;;4898398;29;20484;-69
2024/04/02 01:56:49;;;;;;;10.87;9.97;;;9.30;99.90;;;;;;4882691;29;20485;-69
2024/04/02 01:59:17;;;;;;;11.00;10.20;;;9.30;99.90;;;;;;4898523;29;20467;-69
2024/04/02 02:01:44;;;;;;;10.87;9.87;;;9.30;99.90;;;;;;4899492;29;20473;-69
2024/04/02 02:04:11;;;;;;;11.50;10.50;;;9.20;99.90;;;;;;4886877;29;20828;-69
2024/04/02 02:06:38;;;;;;;11.07;10.17;;;9.20;99.90;;;;;;4899933;29;20460;-69
2024/04/02 02:09:05;;;;;;;11.50;10.50;;;9.20;99.90;;;;;;4898982;29;20492;-69
2024/04/02 02:11:31;;;;;;;12.07;10.90;;;9.20;99.90;;;;;;4899123;29;20472;-69
2024/04/02 02:14:00;;;;;;;12.53;11.43;;;9.20;99.90;;;;;;4899017;29;20932;-69
2024/04/02 02:16:26;;;;;;;13.10;12.10;;;9.20;99.90;;;;;;4882399;29;20597;-68
2024/04/02 02:18:57;;;;;;;12.23;11.17;;;9.20;99.90;;;;;;4914066;29;20456;-69
2024/04/02 02:21:24;;;;;;;13.37;12.37;;;9.20;99.90;;;;;;4898430;29;20881;-69
2024/04/02 02:23:52;;;;;;;13.70;12.60;;;9.20;99.90;;;;;;4897911;29;20441;-69
2024/04/02 02:26:18;;;;;;;15.40;14.10;;;9.20;99.90;;;;;;4897718;29;20453;-69
2024/04/02 02:28:45;;;;;;;15.73;14.33;;;9.20;99.90;;;;;;4897640;29;20481;-69
2024/04/02 02:31:12;;;;;;;15.20;13.90;;;9.20;99.90;;;;;;4897664;29;20445;-69
2024/04/02 02:33:39;;;;;;;15.43;14.10;;;9.20;99.90;;;;;;4898047;29;20461;-69
2024/04/02 02:36:07;;;;;;;15.27;14.07;;;9.20;99.90;;;;;;4913204;29;20601;-69
2024/04/02 02:38:35;;;;;;;17.00;15.40;;;9.20;99.90;;;;;;4897423;29;20448;-69
2024/04/02 02:41:01;;;;;;;16.33;14.77;;;9.20;99.90;;;;;;4881789;29;20477;-69
2024/04/02 02:43:28;;;;;;;14.97;13.67;;;9.20;99.90;;;;;;4897295;29;20473;-69
2024/04/02 02:45:55;;;;;;;15.70;14.50;;;9.20;99.90;;;;;;4897298;29;20536;-69
2024/04/02 02:48:23;;;;;;;15.57;14.20;;;9.20;99.90;;;;;;4897192;29;20480;-69
2024/04/02 02:50:49;;;;;;;16.63;15.17;;;9.20;99.90;;;;;;4897758;29;20504;-69
2024/04/02 02:53:18;;;;;;;16.97;15.57;;;9.20;99.90;;;;;;4897521;29;20987;-69
2024/04/02 02:55:53;;;;;;;15.70;14.33;;;9.20;99.90;;;;;;4897428;29;20532;-69
2024/04/02 02:58:21;;;;;;;15.67;14.40;;;9.20;99.90;;;;;;4897732;29;20918;-69
2024/04/02 03:00:47;;;;;;;11.80;10.90;;;9.20;99.90;;;;;;4897169;29;20521;-69
2024/04/02 03:03:15;;;;;;;16.53;15.03;;;9.20;99.90;;;;;;4897149;29;20469;-69
2024/04/02 03:05:53;;;;;;;16.60;15.20;;;9.20;99.90;;;;;;4897404;29;20532;-69
2024/04/02 03:08:22;;;;;;;17.30;15.70;;;9.20;99.90;;;;;;4897306;29;20521;-69
2024/04/02 03:10:57;;;;;;;17.27;15.67;;;9.20;99.90;;;;;;4914859;29;20475;-69
2024/04/02 03:13:28;;;;;;;17.77;16.27;;;9.20;99.90;;;;;;4904072;29;20907;-69
2024/04/02 03:15:54;;;;;;;18.10;16.50;;;9.20;99.90;;;;;;4903489;29;20452;-69
2024/04/02 03:18:21;;;;;;;18.07;16.67;;;9.20;99.90;;;;;;4903264;29;21120;-69
2024/04/02 03:20:48;;;;;;;17.50;15.87;;;9.20;99.90;;;;;;4903274;29;20444;-69
2024/04/02 03:23:16;;;;;;;16.93;15.43;;;9.20;99.90;;;;;;4903188;29;20492;-69
2024/04/02 03:25:51;;;;;;;17.33;15.93;;;9.20;99.90;;;;;;4887612;29;20460;-69
2024/04/02 03:28:19;;;;;;;18.33;17.00;;;9.20;99.90;;;;;;4903308;29;20560;-69
2024/04/02 03:30:46;;;;;;;17.50;15.83;;;9.10;99.90;;;;;;4888352;29;20854;-69
2024/04/02 03:33:13;;;;;;;17.50;16.10;;;9.10;99.90;;;;;;4903064;29;20476;-69
2024/04/02 03:35:39;;;;;;;18.03;16.53;;;9.10;99.90;;;;;;4903998;29;20871;-69
2024/04/02 03:38:07;;;;;;;17.70;16.10;;;9.10;99.90;;;;;;4903667;29;20461;-69
2024/04/02 03:40:37;;;;;;;19.00;17.20;;;9.10;99.90;;;;;;4903104;29;20515;-69
2024/04/02 03:43:05;;;;;;;18.13;16.53;;;9.10;99.90;;;;;;4902903;29;20843;-69
2024/04/02 03:45:32;;;;;;;19.00;17.20;;;9.10;99.90;;;;;;4903775;29;20437;-69
2024/04/02 03:48:00;;;;;;;17.43;16.03;;;9.10;99.90;;;;;;4903210;29;20473;-69
2024/04/02 03:50:26;;;;;;;16.47;15.07;;;9.00;99.90;;;;;;4918931;29;20448;-69
2024/04/02 03:52:53;;;;;;;16.20;15.00;;;9.00;99.90;;;;;;4902947;29;20468;-69
2024/04/02 03:55:19;;;;;;;17.00;15.50;;;9.00;99.90;;;;;;4903006;29;20445;-69
2024/04/02 03:57:47;;;;;;;16.13;14.83;;;9.00;99.90;;;;;;4902922;29;20472;-69
2024/04/02 04:00:14;;;;;;;16.00;14.70;;;9.00;99.90;;;;;;4902913;29;20456;-69
2024/04/02 04:02:42;;;;;;;16.47;15.17;;;9.00;99.90;;;;;;4902876;29;20472;-69
2024/04/02 04:05:08;;;;;;;17.20;15.20;;;9.00;99.90;;;;;;4903227;29;20484;-69
2024/04/02 04:07:35;;;;;;;15.17;13.87;;;9.00;99.90;;;;;;4887077;29;20453;-69
2024/04/02 04:10:02;;;;;;;15.50;13.90;;;9.00;99.90;;;;;;4887141;29;20449;-68
2024/04/02 04:12:29;;;;;;;14.23;13.00;;;9.00;99.90;;;;;;4902861;29;20982;-69
2024/04/02 04:14:56;;;;;;;14.53;13.10;;;8.90;99.90;;;;;;4902825;29;21011;-69
2024/04/02 04:17:24;;;;;;;13.73;12.60;;;8.90;99.90;;;;;;4903066;29;20545;-69
2024/04/02 04:19:51;;;;;;;14.67;13.40;;;8.90;99.90;;;;;;4902825;29;20519;-69
2024/04/02 04:22:18;;;;;;;14.70;13.50;;;8.90;99.90;;;;;;4900915;29;20564;-69
2024/04/02 04:24:44;;;;;;;14.90;13.57;;;8.90;99.90;;;;;;4899733;29;20445;-69
2024/04/02 04:27:11;;;;;;;14.03;12.63;;;8.90;99.90;;;;;;4899759;29;20456;-69
2024/04/02 04:29:38;;;;;;;13.97;12.77;;;8.90;99.90;;;;;;4899654;29;20473;-69
2024/04/02 04:32:05;;;;;;;12.77;11.67;;;8.90;99.90;;;;;;4899800;29;20469;-69
2024/04/02 04:34:33;;;;;;;14.97;13.60;;;8.90;99.90;;;;;;4899880;29;20999;-69
2024/04/02 04:37:00;;;;;;;13.73;12.57;;;8.80;99.90;;;;;;4899847;29;20504;-69
2024/04/02 04:39:26;;;;;;;15.50;13.97;;;8.80;99.90;;;;;;4899719;29;20453;-69
2024/04/02 04:41:54;;;;;;;14.77;13.47;;;8.80;99.90;;;;;;4899866;29;20476;-69
2024/04/02 04:44:20;;;;;;;13.30;12.20;;;8.80;99.90;;;;;;4900118;29;20832;-69
2024/04/02 04:46:47;;;;;;;15.23;13.93;;;8.80;99.90;;;;;;4899964;29;20815;-69
2024/04/02 04:49:13;;;;;;;12.77;11.77;;;8.80;99.90;;;;;;4899281;29;20533;-69
2024/04/02 04:51:42;;;;;;;12.87;11.77;;;8.80;99.90;;;;;;4899621;29;20573;-69
2024/04/02 04:54:08;;;;;;;14.63;13.27;;;8.80;99.90;;;;;;4899870;29;20513;-69
2024/04/02 04:56:36;;;;;;;13.37;12.07;;;8.80;99.90;;;;;;4899272;29;20468;-69
2024/04/02 04:59:02;;;;;;;14.07;12.80;;;8.80;99.90;;;;;;4899478;29;20460;-69
2024/04/02 05:01:29;;;;;;;13.20;11.90;;;8.80;99.90;;;;;;4899028;29;20473;-69
2024/04/02 05:03:55;;;;;;;12.63;11.50;;;8.80;99.90;;;;;;4899195;29;20449;-69
2024/04/02 05:06:22;;;;;;;12.87;11.83;;;8.70;99.90;;;;;;4914742;29;20505;-69
2024/04/02 05:08:50;;;;;;;13.00;11.97;;;8.70;99.90;;;;;;4899258;29;20533;-68
2024/04/02 05:11:17;;;;;;;13.03;11.90;;;8.70;99.90;;;;;;4898907;29;20518;-70
2024/04/02 05:13:43;;;;;;;12.37;11.37;;;8.70;99.90;;;;;;4898858;29;20868;-69
2024/04/02 05:16:11;;;;;;;12.83;11.60;;;8.70;99.90;;;;;;4899185;29;20441;-69
2024/04/02 05:18:37;;;;;;;11.43;10.53;;;8.70;99.90;;;;;;4900966;29;20553;-69
2024/04/02 05:21:04;;;;;;;12.57;11.53;;;8.70;99.90;;;;;;4903529;29;20464;-70
2024/04/02 05:23:31;;;;;;;11.13;10.23;;;8.70;99.90;;;;;;4900673;29;20453;-70
2024/04/02 05:26:00;;;;;;;10.57;9.67;;;8.70;99.90;;;;;;4883949;29;20446;-69
2024/04/02 05:28:27;;;;;;;11.47;10.40;;;8.70;99.90;;;;;;4883383;29;20885;-69
2024/04/02 05:30:54;;;;;;;10.97;10.10;;;8.70;99.90;;;;;;4899278;29;20813;-70
2024/04/02 05:33:20;;;;;;;11.47;10.50;;;8.70;99.90;;;;;;4898596;29;20513;-69
2024/04/02 05:35:48;;;;;;;10.53;9.53;;;8.70;99.90;;;;;;4883145;29;20461;-69
2024/04/02 05:38:14;;;;;;;10.67;9.67;;;8.70;99.90;;;;;;4898547;29;20445;-69
2024/04/02 05:40:41;;;;;;;9.77;8.87;;;8.70;99.90;;;;;;4898841;29;20457;-69
2024/04/02 05:43:09;;;;;;;10.20;9.40;;;8.70;99.90;;;;;;4898391;29;20537;-70
2024/04/02 05:45:36;;;;;;;10.30;9.43;;;8.70;99.90;;;;;;4898751;29;20541;-69
2024/04/02 05:48:02;;;;;;;10.03;9.13;;;8.70;99.90;;;;;;4898524;29;20449;-68
2024/04/02 05:50:30;;;;;;;10.27;9.33;;;8.70;99.90;;;;;;4898509;29;20469;-69
2024/04/02 05:52:56;;;;;;;9.53;8.73;;;8.70;99.90;;;;;;4898281;29;20469;-69
2024/04/02 05:55:23;;;;;;;9.80;9.00;;;8.70;99.90;;;;;;4898526;29;20449;-69
2024/04/02 05:57:50;;;;;;;8.87;8.17;;;8.80;99.90;;;;;;4898207;29;20461;-69
2024/04/02 06:00:19;;;;;;;9.90;9.07;;;8.80;99.90;;;;;;4882392;29;20459;-69
2024/04/02 06:02:45;;;;;;;9.27;8.50;;;8.80;99.90;;;;;;4898005;29;20477;-69
2024/04/02 06:05:13;;;;;;;10.30;9.30;;;8.80;99.90;;;;;;4882415;29;20460;-69
2024/04/02 06:07:39;;;;;;;10.10;9.17;;;8.80;99.90;;;;;;4897950;29;20488;-69
2024/04/02 06:10:06;;;;;;;10.00;8.97;;;8.80;99.90;;;;;;4897943;29;20473;-69
2024/04/02 06:12:33;;;;;;;9.73;8.80;;;8.80;99.90;;;;;;4898174;29;20473;-68
2024/04/02 06:15:00;;;;;;;8.30;7.50;;;8.90;99.90;;;;;;4898393;29;20517;-69
2024/04/02 06:17:28;;;;;;;8.40;7.70;;;8.90;99.90;;;;;;4897754;29;20511;-69
2024/04/02 06:19:55;;;;;;;11.67;8.63;;;9.00;99.90;;;;;;4898225;29;20445;-69
2024/04/02 06:22:26;;;;;;;8.90;8.20;;;9.10;99.90;;;;;;4897861;29;20465;-69
2024/04/02 06:24:54;;;;;;;9.13;8.20;;;9.20;99.90;;;;;;4913469;29;20939;-69
2024/04/02 06:27:20;;;;;;;8.30;7.60;;;9.30;99.90;;;;;;4897615;29;20445;-69
2024/04/02 06:29:48;;;;;;;7.23;6.60;;;9.50;99.90;;;;;;4898981;29;20568;-69
2024/04/02 06:32:14;;;;;;;8.00;7.20;;;9.60;99.90;;;;;;4899115;29;20528;-69
2024/04/02 06:34:43;;;;;;;7.70;7.00;;;9.70;99.90;;;;;;4897494;29;20453;-69
2024/04/02 06:37:09;;;;;;;8.33;7.63;;;9.80;99.90;;;;;;4897311;29;20837;-69
2024/04/02 06:39:36;;;;;;;7.73;6.90;;;9.90;99.90;;;;;;4897624;29;20445;-68
2024/04/02 06:42:03;;;;;;;7.87;7.10;;;10.00;99.90;;;;;;4897574;29;20469;-69
2024/04/02 06:44:30;;;;;;;8.23;7.00;;;10.10;99.90;;;;;;4897415;29;21006;-69
2024/04/02 06:46:56;;;;;;;7.30;6.63;;;10.20;99.90;;;;;;4881046;29;20457;-69
2024/04/02 06:49:24;;;;;;;6.80;6.20;;;10.30;99.90;;;;;;4881623;29;20488;-69
2024/04/02 06:51:52;;;;;;;7.47;6.87;;;10.30;99.90;;;;;;4881551;29;20512;-69
2024/04/02 06:54:20;;;;;;;7.40;5.93;;;10.40;99.90;;;;;;4912988;29;20457;-69
2024/04/02 06:56:46;;;;;;;6.63;6.13;;;10.50;99.90;;;;;;4897161;29;20457;-69
2024/04/02 06:59:13;;;;;;;6.50;5.90;;;10.60;99.90;;;;;;4896976;29;20450;-70
2024/04/02 07:01:39;;;;;;;7.53;6.20;;;10.60;99.90;;;;;;4896927;29;20552;-69
2024/04/02 07:04:07;;;;;;;6.70;6.10;;;10.70;99.90;;;;;;4897010;29;20509;-69
2024/04/02 07:06:33;;;;;;;6.03;5.43;;;10.80;99.90;;;;;;4897067;29;20448;-70
2024/04/02 07:09:03;;;;;;;6.37;5.70;;;10.90;99.90;;;;;;4897365;29;20481;-70
2024/04/02 07:11:29;;;;;;;6.47;5.70;;;11.00;99.90;;;;;;4896930;29;20556;-69
2024/04/02 07:13:56;;;;;;;5.53;4.93;;;11.00;99.90;;;;;;4897025;29;20472;-69
2024/04/02 07:16:22;;;;;;;5.77;5.17;;;11.00;99.90;;;;;;4896965;29;20529;-69
2024/04/02 07:18:50;;;;;;;6.60;5.70;;;11.00;99.90;;;;;;4897323;29;20445;-69
2024/04/02 07:21:16;;;;;;;5.60;4.97;;;11.00;99.90;;;;;;4896897;29;20501;-70
2024/04/02 07:23:43;;;;;;;6.33;5.53;;;11.00;99.90;;;;;;4896887;29;20457;-69
2024/04/02 07:26:11;;;;;;;6.40;5.80;;;11.00;99.90;;;;;;4896896;29;20576;-70
2024/04/02 07:28:40;;;;;;;6.60;5.77;;;11.00;99.90;;;;;;4881176;29;20480;-70
2024/04/02 07:31:06;;;;;;;5.10;4.60;;;11.10;99.90;;;;;;4897222;29;20820;-70
2024/04/02 07:33:34;;;;;;;6.30;5.70;;;11.10;99.90;;;;;;4913067;29;20835;-69
2024/04/02 07:36:01;;;;;;;5.17;4.47;;;11.20;99.90;;;;;;4897373;29;20939;-69
2024/04/02 07:38:29;;;;;;;5.70;5.10;;;11.20;99.90;;;;;;4896838;29;20568;-69
2024/04/02 07:40:55;;;;;;;5.60;4.90;;;11.20;99.90;;;;;;4896833;29;20453;-69
2024/04/02 07:43:23;;;;;;;6.50;5.90;;;11.30;99.90;;;;;;4880984;29;20542;-70
2024/04/02 07:45:50;;;;;;;6.13;5.53;;;11.30;99.90;;;;;;4896823;29;20453;-69
2024/04/02 07:48:17;;;;;;;6.07;5.47;;;11.40;99.90;;;;;;4896647;29;20454;-69
2024/04/02 07:50:44;;;;;;;6.50;5.97;;;11.50;99.90;;;;;;4896812;29;20449;-70
2024/04/02 07:53:11;;;;;;;6.43;5.87;;;11.60;99.90;;;;;;4881212;29;20473;-69
2024/04/02 07:55:37;;;;;;;5.60;5.10;;;11.60;99.90;;;;;;4880937;29;20509;-70
2024/04/02 07:58:05;;;;;;;6.57;5.83;;;11.70;99.90;;;;;;4899254;29;20453;-70
2024/04/02 08:00:33;;;;;;;6.33;5.83;;;11.80;99.90;;;;;;4900310;29;20501;-69
2024/04/02 08:03:00;;;;;;;7.00;5.90;;;12.00;99.90;;;;;;4884661;29;20873;-70
2024/04/02 08:05:26;;;;;;;7.20;6.50;;;12.10;99.90;;;;;;4900159;29;20456;-70
2024/04/02 08:07:53;;;;;;;6.67;6.07;;;12.20;99.90;;;;;;4915893;29;20970;-70
2024/04/02 08:10:20;;;;;;;6.90;5.23;;;12.30;99.90;;;;;;4900238;29;20533;-70
2024/04/02 08:12:47;;;;;;;10.77;5.20;;;12.50;99.90;;;;;;4900001;29;20469;-70
2024/04/02 08:15:13;;;;;;;4.97;4.57;;;12.50;99.90;;;;;;4900071;29;20463;-69
2024/04/02 08:17:42;;;;;;;5.83;5.10;;;12.40;99.90;;;;;;4900386;29;20485;-69
2024/04/02 08:20:08;;;;;;;5.93;5.43;;;12.40;99.90;;;;;;4899895;29;20453;-69
2024/04/02 08:22:36;;;;;;;6.07;5.57;;;12.40;99.90;;;;;;4900070;29;20480;-69
2024/04/02 08:25:02;;;;;;;5.70;5.20;;;12.40;99.90;;;;;;4904549;29;20460;-69
2024/04/02 08:27:29;;;;;;;6.37;5.87;;;12.50;99.90;;;;;;4903266;29;20449;-70
2024/04/02 08:29:56;;;;;;;5.87;5.20;;;12.50;99.90;;;;;;4885611;29;20476;-70
2024/04/02 08:32:24;;;;;;;5.80;5.10;;;12.40;99.90;;;;;;4901144;29;20472;-69
2024/04/02 08:34:51;;;;;;;5.80;5.30;;;12.30;99.90;;;;;;4900199;29;20445;-69
2024/04/02 08:37:19;;;;;;;5.80;5.30;;;12.30;99.90;;;;;;4900398;29;20454;-69
2024/04/02 08:39:45;;;;;;;5.87;5.30;;;12.20;99.90;;;;;;4899737;29;20452;-70
2024/04/02 08:42:14;;;;;;;6.63;5.97;;;12.10;99.90;;;;;;4884176;29;20496;-70
2024/04/02 08:44:41;;;;;;;5.63;5.03;;;12.00;99.90;;;;;;4915167;29;20556;-70
2024/04/02 08:47:09;;;;;;;6.57;5.87;;;12.00;99.90;;;;;;4899585;29;20464;-70
2024/04/02 08:49:36;;;;;;;6.33;5.80;;;12.00;99.90;;;;;;4899388;29;20480;-69
2024/04/02 08:52:06;;;;;;;6.67;5.93;;;12.00;99.90;;;;;;4899691;29;20849;-69
2024/04/02 08:54:32;;;;;;;8.67;5.87;;;12.00;99.90;;;;;;4899520;29;20453;-69
2024/04/02 08:57:00;;;;;;;7.00;6.27;;;12.00;99.90;;;;;;4899430;29;20481;-69
2024/04/02 08:59:28;;;;;;;5.80;5.30;;;12.00;99.90;;;;;;4899344;29;20501;-69
2024/04/02 09:01:58;;;;;;;8.43;7.70;;;12.10;99.90;;;;;;4899168;29;20465;-70
2024/04/02 09:04:25;;;;;;;7.50;6.83;;;12.10;99.90;;;;;;4886646;29;20505;-70
2024/04/02 09:06:52;;;;;;;7.37;6.70;;;12.10;99.90;;;;;;4903054;29;20449;-69
2024/04/02 09:09:25;;;;;;;7.30;6.70;;;12.20;99.90;;;;;;4884401;29;20500;-69
2024/04/02 09:11:53;;;;;;;8.27;7.47;;;12.20;99.90;;;;;;4899935;29;20467;-69
2024/04/02 09:14:19;;;;;;;7.53;6.93;;;12.30;99.90;;;;;;4900063;29;20461;-69
2024/04/02 09:16:47;;;;;;;8.17;7.37;;;12.30;99.90;;;;;;4899371;29;20445;-69
2024/04/02 09:19:13;;;;;;;7.00;6.30;;;12.40;99.90;;;;;;4899422;29;20849;-70
2024/04/02 09:21:40;;;;;;;6.13;4.90;;;12.40;99.90;;;;;;4898948;29;20469;-69
2024/04/02 09:24:08;;;;;;;5.10;4.70;;;12.40;99.90;;;;;;4883255;29;20453;-70
2024/04/02 09:26:37;;;;;;;6.60;5.57;;;12.40;99.90;;;;;;4898889;29;20453;-70
2024/04/02 09:29:03;;;;;;;6.50;5.90;;;12.40;99.90;;;;;;4898741;29;20559;-69
2024/04/02 09:31:33;;;;;;;6.57;5.97;;;12.40;99.90;;;;;;4899377;29;20473;-69
2024/04/02 09:34:05;;;;;;;7.33;6.67;;;12.50;99.90;;;;;;4899371;29;20449;-69
2024/04/02 09:36:48;;;;;;;7.00;6.30;;;12.50;99.90;;;;;;4898730;29;20452;-69
2024/04/02 09:39:15;;;;;;;5.97;5.57;;;12.60;99.90;;;;;;4898851;29;20430;-70
2024/04/02 09:41:45;;;;;;;5.20;4.80;;;12.60;99.90;;;;;;4914100;29;20469;-69
2024/04/02 09:44:14;;;;;;;4.80;4.40;;;12.60;99.90;;;;;;4882747;29;20521;-69
2024/04/02 09:46:42;;;;;;;4.80;4.30;;;12.70;99.90;;;;;;4899151;29;20489;-69
2024/04/02 09:49:10;;;;;;;5.23;4.57;;;12.70;99.90;;;;;;4898261;29;20484;-69
2024/04/02 09:51:40;;;;;;;5.70;5.10;;;12.80;99.90;;;;;;4898488;29;20537;-70
2024/04/02 09:54:07;;;;;;;9.10;4.83;;;12.90;99.90;;;;;;4898868;29;20457;-69
2024/04/02 09:56:35;;;;;;;5.40;4.90;;;12.90;99.90;;;;;;4898179;29;20972;-69
2024/04/02 09:59:03;;;;;;;6.47;5.73;;;12.90;99.90;;;;;;4882591;29;20464;-69
2024/04/02 10:01:33;;;;;;;7.13;6.40;;;12.90;99.90;;;;;;4898074;29;20471;-70
2024/04/02 10:04:05;;;;;;;6.60;6.00;;;13.00;99.90;;;;;;4898823;29;20485;-69
2024/04/02 10:06:34;;;;;;;7.33;6.73;;;12.90;99.90;;;;;;4898174;29;20440;-70
2024/04/02 10:09:03;;;;;;;6.97;6.37;;;13.00;99.90;;;;;;4898307;29;20454;-70
2024/04/02 10:11:38;;;;;;;7.03;6.50;;;12.90;99.90;;;;;;4898164;29;20517;-70
2024/04/02 10:14:08;;;;;;;8.80;6.63;;;12.90;99.90;;;;;;4897982;29;20465;-70
2024/04/02 10:16:40;;;;;;;7.50;6.80;;;12.90;99.90;;;;;;4897831;29;20433;-70
2024/04/02 10:19:12;;;;;;;7.93;7.30;;;12.90;99.90;;;;;;4897928;29;20437;-70
2024/04/02 10:21:39;;;;;;;7.50;6.67;;;12.90;99.90;;;;;;4897046;29;20978;-70
2024/04/02 10:24:08;;;;;;;9.10;7.30;;;13.00;99.90;;;;;;4898287;29;20508;-69
2024/04/02 10:26:37;;;;;;;8.27;7.00;;;13.00;99.90;;;;;;4897642;29;20454;-69
2024/04/02 10:29:05;;;;;;;8.10;6.57;;;12.90;99.90;;;;;;4881931;29;20875;-70
2024/04/02 10:31:37;;;;;;;7.50;6.73;;;12.90;99.90;;;;;;4897732;29;20488;-70
2024/04/02 10:34:07;;;;;;;9.20;8.40;;;12.90;99.90;;;;;;4913407;29;20456;-70
2024/04/02 10:36:34;;;;;;;8.60;7.80;;;12.80;99.90;;;;;;4898107;29;20434;-70
2024/04/02 10:39:03;;;;;;;8.87;8.07;;;12.80;99.90;;;;;;4897801;29;20480;-69
2024/04/02 10:41:33;;;;;;;9.60;8.80;;;12.80;99.90;;;;;;4897538;29;20462;-70
2024/04/02 10:44:00;;;;;;;9.30;8.40;;;12.80;99.90;;;;;;4913260;29;20529;-70
2024/04/02 10:46:27;;;;;;;7.80;7.10;;;12.80;99.90;;;;;;4881841;29;20943;-69
2024/04/02 10:48:59;;;;;;;9.67;8.67;;;12.80;99.90;;;;;;4897691;29;20454;-70
2024/04/02 10:51:26;;;;;;;10.03;7.60;;;12.80;99.90;;;;;;4897985;29;20563;-70
2024/04/02 10:53:54;;;;;;;8.63;7.07;;;12.90;99.90;;;;;;4897889;29;20823;-70
2024/04/02 10:56:21;;;;;;;9.73;7.10;;;12.90;99.90;;;;;;4897420;29;20449;-69
2024/04/02 10:58:49;;;;;;;12.90;7.70;;;13.00;99.90;;;;;;4897711;29;20449;-70
2024/04/02 11:01:16;;;;;;;9.13;7.40;;;13.10;99.90;;;;;;4881425;29;20799;-70
2024/04/02 11:03:45;;;;;;;7.60;6.90;;;13.10;99.90;;;;;;4897234;29;20452;-70
2024/04/02 11:06:13;;;;;;;7.43;6.27;;;13.10;99.90;;;;;;4913300;29;20445;-70
2024/04/02 11:08:40;;;;;;;7.50;6.80;;;13.10;99.90;;;;;;4897023;29;20997;-70
2024/04/02 11:11:07;;;;;;;7.73;7.10;;;13.20;99.90;;;;;;4896897;29;20485;-70
2024/04/02 11:13:34;;;;;;;10.10;8.17;;;13.10;99.90;;;;;;4896907;29;20441;-70
2024/04/02 11:16:01;;;;;;;7.80;7.10;;;13.00;99.90;;;;;;4897138;29;20453;-70
2024/04/02 11:18:29;;;;;;;8.73;7.50;;;13.00;99.90;;;;;;4897090;29;20450;-70
2024/04/02 11:20:56;;;;;;;7.33;6.50;;;13.00;99.90;;;;;;4896967;29;20453;-69
2024/04/02 11:26:15;;;;;;;7.13;6.40;;;13.00;99.90;;;;;;4897026;29;20441;-70
2024/04/02 11:28:42;;;;;;;9.00;6.93;;;13.00;99.90;;;;;;4897481;29;20452;-70
2024/04/02 11:31:10;;;;;;;9.37;7.30;;;13.10;99.90;;;;;;4912490;29;20826;-70
2024/04/02 11:33:37;;;;;;;8.30;7.03;;;13.10;99.90;;;;;;4900403;29;20493;-70
2024/04/02 11:36:04;;;;;;;8.90;6.60;;;13.00;99.90;;;;;;4900708;29;20457;-70
2024/04/02 11:38:33;;;;;;;8.57;7.60;;;13.10;99.90;;;;;;4916277;29;20468;-69
2024/04/02 11:40:59;;;;;;;8.50;7.20;;;13.10;99.90;;;;;;4900552;29;20469;-69
2024/04/02 11:43:26;;;;;;;6.53;5.73;;;13.00;99.90;;;;;;4900470;29;20481;-70
2024/04/02 11:45:52;;;;;;;7.43;6.10;;;13.10;99.90;;;;;;4901110;29;20436;-70
2024/04/02 11:48:20;;;;;;;6.97;6.27;;;13.10;99.90;;;;;;4916219;29;20522;-70
2024/04/02 11:50:46;;;;;;;6.70;5.73;;;13.20;99.90;;;;;;4900344;29;20511;-70
2024/04/02 11:53:13;;;;;;;8.03;6.50;;;13.20;99.90;;;;;;4900384;29;20520;-70
2024/04/02 11:55:42;;;;;;;6.50;5.77;;;13.20;99.90;;;;;;4900377;29;20504;-69
2024/04/02 12:00:55;;;;;;;5.63;5.13;;;13.10;99.90;;;;;;4900263;29;20433;-69
2024/04/02 12:03:22;;;;;;;6.10;4.50;;;13.00;99.90;;;;;;4916131;29;20921;-70
2024/04/02 12:05:49;;;;;;;5.83;4.60;;;12.90;99.90;;;;;;4900633;29;20793;-70
2024/04/02 12:08:15;;;;;;;8.37;4.77;;;12.90;99.90;;;;;;4900143;29;20958;-70
2024/04/02 12:10:44;;;;;;;6.43;5.80;;;12.80;99.90;;;;;;4900620;29;20994;-70
2024/04/02 12:13:10;;;;;;;7.40;5.40;;;12.80;99.90;;;;;;4900016;29;21054;-69
2024/04/02 12:15:37;;;;;;;8.53;6.20;;;12.80;99.90;;;;;;4900204;29;20460;-69
2024/04/02 12:18:04;;;;;;;5.93;5.32;;;12.90;99.90;;;;;;4900233;29;20456;-70
2024/04/02 12:20:31;;;;;;;8.83;6.03;;;12.90;99.90;;;;;;4887075;29;20204;-70
2024/04/02 12:22:57;;;;;;;7.80;5.77;;;13.00;99.90;;;;;;4899884;29;20528;-69
2024/04/02 12:25:25;;;;;;;6.93;5.10;;;13.00;99.90;;;;;;4884147;29;20455;-69
2024/04/02 12:27:55;;;;;;;6.60;6.00;;;13.00;99.90;;;;;;4899870;29;20473;-70
2024/04/02 12:30:22;;;;;;;7.43;6.60;;;13.00;99.90;;;;;;4899666;29;20475;-70
2024/04/02 12:32:48;;;;;;;6.60;5.80;;;13.00;99.90;;;;;;4899944;29;20477;-70
2024/04/02 12:35:16;;;;;;;6.93;5.20;;;13.00;99.90;;;;;;4899965;29;20570;-69
2024/04/02 12:37:43;;;;;;;6.13;5.53;;;13.00;99.90;;;;;;4899955;29;20454;-70
2024/04/02 12:40:11;;;;;;;6.23;5.17;;;12.90;99.90;;;;;;4899685;29;20458;-70
2024/04/02 12:42:38;;;;;;;5.60;5.10;;;12.90;99.90;;;;;;4899293;29;20489;-70
2024/04/02 12:45:07;;;;;;;6.40;5.37;;;12.90;99.90;;;;;;4898739;29;20595;-70
2024/04/02 12:47:34;;;;;;;5.10;4.53;;;12.90;99.90;;;;;;4899473;29;20454;-69
2024/04/02 12:50:01;;;;;;;7.00;4.60;;;12.80;99.90;;;;;;4902731;29;20510;-69
2024/04/02 12:52:30;;;;;;;6.43;4.97;;;12.80;99.90;;;;;;4887421;29;20560;-70